EDDL

Dusseldorf

Airport
ICAO code
EDDL
Summary
ICAO Region
EUR
ICAO Territory
Location

Düsseldorf,

Elevation
147 ft
Coordinates
51° 17' 22" N , 6° 46' 0" E
KCC
Metar
Observation
EDDL 062320Z AUTO 26007KT 8000 -SHRA BKN008 BKN023 FEW///CB 05/04 Q1017 TEMPO SCT008
Station
Duesseldorf
Date/Time
2022-12-06 23:20:00
Wind direction
260°
Wind speed
07 kts
Lowest cloud amount
broken clouds
Temperature
5°C
Dew point
4°C
Humidity
93%
QNH
1017 hPa
Weather condition
n/a

Description

International airport serving Düsseldorf.

Climatology

Temperate Marine climate/Oceanic climate (Köppen climate classification Cfb) - Moderately cool summer and comparatively warm winter.

Runways

Designator Length Width Surface Rops
05L/23R 2700 45 CON Yes/Yes
05R/23L 3000 45 CON Yes/Yes

Airport map

Aerial View

SKYbrary Partners:

Safety knowledge contributed by: